SVMG/PMV METAR and TAF weather

Enter ICAO airport designator
Station Type Date Time Source
SVMG METAR 2022/05/24 12:03 UTC NOAA

SVMG 241203Z AUTO 10009KT NCD 26/25 Q1014


Station Type Date Time Source
SVMG Decoded METAR 2022/05/24 12:03 UTC NOAA

Margarita / Del Carib, Venezuela (SVMG) 10-55N 063-59W
May 24, 2022 - 08:03 AM EDT / 2022.05.24 1203 UTC
Wind: from the E (100 degrees) at 10 MPH (9 KT):0
Temperature: 78 F (26 C)
Dew Point: 77 F (25 C)
Relative Humidity: 94%
Pressure (altimeter): 29.94 in. Hg (1014 hPa)
ob: SVMG 241203Z AUTO 10009KT NCD 26/25 Q1014
cycle: 12

Station Type Date Time Source
SVMG TAF 2022/05/24 12:04 UTC NOAA

TAF SVMG 241000Z 2412/2512 06005KT 9999 SCT016 TX33/2418Z TN24/2508Z
BECMG 1812/1816 07010KT 9999 FEW013

Example: see airport list